ナント の空港の天気 - METARとTAF

ナント空港 ( LFRS / NTE ) - フランス ナント
飛行場実況気象(Metar)
観測時間07/18 14:30 CEST (07/18 12:30 UTC)
風向・風速南西 6m/s
視程10km以上
天気現象
全天の8割程度の雲 雲底高度 430m
全天の8割程度の雲 雲底高度 700m
全天を覆う雲 雲底高度 850m
気温21℃
湿度78%
気圧1016hPa
METARLFRS 181230Z AUTO 22011KT 180V240 9999 BKN014 BKN023 OVC028 21/17 Q1016 TEMPO 4500 -RA
過去の天気等 Google飛行場航空写真 Wunderground天気予報

過去48時間のMETAR

飛行場予報(TAF)
発表時間: 7/18 13:00 CEST (7/18 11:00 UTC)
予報対象時間: 18日14時 CEST ~ 19日20時 CEST
風向・風速西南西 5m/s
視程10km以上
全天の8割程度の雲 雲底高度 490m
18日15時 CEST ~ 18日18時 CEST に一時的に
視程4500m
天気現象弱い雨
全天を覆う雲 雲底高度 370m
18日18時 CEST ~ 18日20時 CEST に徐々に
全天の4割程度の雲 雲底高度 610m
18日23時 CEST ~ 19日2時 CEST に徐々に
風向・風速不定 2m/s
19日2時 CEST ~ 19日8時 CEST に 確率 30% で一時的に
全天の8割程度の雲 雲底高度 300m
19日11時 CEST ~ 19日13時 CEST に徐々に
風向・風速西 5m/s
TAF LFRS 181100Z 1812/1918 25010KT 9999 BKN016
TEMPO 1813/1816 4500 -RA OVC012
BECMG 1816/1818 SCT020
BECMG 1821/1824 VRB03KT
PROB30 TEMPO 1900/1906 BKN010
BECMG 1909/1911 26010KT